createdAt,value
2023-03-31T00:03:10.396Z,88.68
2023-03-31T00:07:16.632Z,89.98
2023-03-31T00:11:19.319Z,90.45
2023-03-31T00:15:22.000Z,89.33
2023-03-31T00:19:24.695Z,88.81
2023-03-31T00:23:28.961Z,89.25
2023-03-31T00:27:31.640Z,89.51
2023-03-31T00:31:35.027Z,89.98
2023-03-31T00:35:39.287Z,90.05
2023-03-31T00:39:43.500Z,89.77
2023-03-31T00:44:06.453Z,90.49
2023-03-31T00:48:17.234Z,90.26
2023-03-31T00:52:23.865Z,90.26
2023-03-31T00:56:32.842Z,90.24
2023-03-31T01:00:35.637Z,90.67
2023-03-31T01:04:44.543Z,90.46
2023-03-31T01:08:50.066Z,90.79
2023-03-31T01:12:56.643Z,91.04
2023-03-31T01:16:59.339Z,90.71
2023-03-31T01:21:30.592Z,89.95
2023-03-31T01:26:18.360Z,89.27
2023-03-31T01:30:50.744Z,90.18
2023-03-31T01:35:31.951Z,90.38
2023-03-31T01:40:16.702Z,90.21
2023-03-31T01:44:30.884Z,90.21
2023-03-31T01:48:42.010Z,89.68
2023-03-31T01:52:50.793Z,89.95
2023-03-31T01:56:59.959Z,90.26
2023-03-31T02:01:06.805Z,90.35
2023-03-31T02:05:13.660Z,90.26
2023-03-31T02:09:21.041Z,89.97
2023-03-31T02:13:28.528Z,90.98
2023-03-31T02:17:32.567Z,92.29
2023-03-31T02:21:40.168Z,93.09
2023-03-31T02:25:49.241Z,93.15
2023-03-31T02:29:54.368Z,93.23
2023-03-31T02:33:57.124Z,93.37
2023-03-31T02:37:59.848Z,93.91
2023-03-31T02:42:07.136Z,93.65
2023-03-31T02:46:11.721Z,94.02
2023-03-31T02:50:14.669Z,93.79
2023-03-31T02:54:29.432Z,93.94
2023-03-31T02:58:59.074Z,93.57
2023-03-31T03:03:17.634Z,93.43
2023-03-31T03:07:29.701Z,93.44
2023-03-31T03:11:41.058Z,93.22
2023-03-31T03:15:48.857Z,93.45
2023-03-31T03:19:58.253Z,93.06
2023-03-31T03:24:01.610Z,93.28
2023-03-31T03:28:04.320Z,93.37
2023-03-31T03:32:07.290Z,92.92
2023-03-31T03:36:11.781Z,92.48
2023-03-31T03:40:15.373Z,92.50
2023-03-31T03:44:18.187Z,92.49
2023-03-31T03:48:21.346Z,92.02
2023-03-31T03:52:25.401Z,92.46
2023-03-31T03:56:28.278Z,92.58
2023-03-31T04:00:30.958Z,92.77
2023-03-31T04:04:33.666Z,92.83
2023-03-31T04:08:37.996Z,93.08
2023-03-31T04:12:40.632Z,93.12
2023-03-31T04:16:43.383Z,93.58
2023-03-31T04:20:46.201Z,93.66
2023-03-31T04:24:52.691Z,93.97
2023-03-31T04:29:00.214Z,94.16
2023-03-31T04:33:04.153Z,93.90
2023-03-31T04:37:10.735Z,94.17
2023-03-31T04:41:14.820Z,94.12
2023-03-31T04:45:18.260Z,94.73
2023-03-31T04:49:21.067Z,94.63
2023-03-31T04:53:24.053Z,95.22
2023-03-31T04:57:28.234Z,95.59
2023-03-31T05:01:33.578Z,95.71
2023-03-31T05:05:36.808Z,95.55
2023-03-31T05:09:39.441Z,95.39
2023-03-31T05:13:43.427Z,95.39
2023-03-31T05:17:46.180Z,95.43
2023-03-31T05:21:48.996Z,95.19
2023-03-31T05:25:51.670Z,95.42
2023-03-31T05:29:55.961Z,95.20
2023-03-31T05:33:58.600Z,95.10
2023-03-31T05:38:01.252Z,95.08
2023-03-31T05:42:06.216Z,95.38
2023-03-31T05:46:10.874Z,95.01
2023-03-31T05:50:14.874Z,94.96
2023-03-31T05:54:18.018Z,95.11
2023-03-31T05:58:20.774Z,94.52
2023-03-31T06:02:25.267Z,94.17
2023-03-31T06:06:28.015Z,94.41
2023-03-31T06:10:30.751Z,93.93
2023-03-31T06:14:33.388Z,93.90
2023-03-31T06:18:37.897Z,93.63
2023-03-31T06:22:40.536Z,93.60
2023-03-31T06:26:43.216Z,93.29
2023-03-31T06:30:45.867Z,93.49
2023-03-31T06:34:49.850Z,93.49
2023-03-31T06:38:52.491Z,93.53
2023-03-31T06:42:56.192Z,93.36
2023-03-31T06:46:59.194Z,93.33
2023-03-31T06:51:05.197Z,93.20
2023-03-31T06:55:10.207Z,93.29
2023-03-31T06:59:13.187Z,93.48
2023-03-31T07:03:19.411Z,93.44
2023-03-31T07:07:23.604Z,93.52
2023-03-31T07:11:26.442Z,93.60
2023-03-31T07:15:29.354Z,93.44
2023-03-31T07:19:31.998Z,93.65
2023-03-31T07:23:39.045Z,93.98
2023-03-31T07:27:41.943Z,93.63
2023-03-31T07:31:44.932Z,93.50
2023-03-31T07:35:54.023Z,93.43
2023-03-31T07:40:09.564Z,93.33
2023-03-31T07:44:12.298Z,93.28
2023-03-31T07:48:15.105Z,93.47
2023-03-31T07:52:19.757Z,93.57
2023-03-31T07:56:26.049Z,93.77
2023-03-31T08:00:29.183Z,93.70
2023-03-31T08:04:31.919Z,94.10
2023-03-31T08:08:34.621Z,93.90
2023-03-31T08:12:38.614Z,94.27
2023-03-31T08:16:41.588Z,94.36
2023-03-31T08:20:44.359Z,93.93
2023-03-31T08:24:48.154Z,94.46
2023-03-31T08:28:52.868Z,94.58
2023-03-31T08:32:56.186Z,94.69
2023-03-31T08:36:59.009Z,94.73
2023-03-31T08:41:02.647Z,94.92
2023-03-31T08:45:17.145Z,94.84
2023-03-31T08:49:22.077Z,94.88
2023-03-31T08:53:28.758Z,94.76
2023-03-31T08:57:35.078Z,94.93
2023-03-31T09:01:54.880Z,94.77
2023-03-31T09:06:02.802Z,94.93
2023-03-31T09:10:22.156Z,94.95
2023-03-31T09:14:35.132Z,94.83
2023-03-31T09:18:40.729Z,95.10
2023-03-31T09:22:49.099Z,94.94
2023-03-31T09:26:55.414Z,94.36
2023-03-31T09:30:58.372Z,94.10
2023-03-31T09:35:17.187Z,93.18
2023-03-31T09:39:19.833Z,92.42
2023-03-31T09:43:24.829Z,92.15
2023-03-31T09:47:34.491Z,91.05
2023-03-31T09:51:42.322Z,90.70
2023-03-31T09:55:52.398Z,90.90
2023-03-31T10:00:03.096Z,89.88
2023-03-31T10:04:09.973Z,89.42
2023-03-31T10:08:24.934Z,87.41
2023-03-31T10:12:30.001Z,85.63
2023-03-31T10:16:34.529Z,83.40
2023-03-31T10:20:39.733Z,82.17
2023-03-31T10:24:46.109Z,82.00
2023-03-31T10:28:52.492Z,80.91
2023-03-31T10:32:55.470Z,77.44
2023-03-31T10:36:58.645Z,74.73
2023-03-31T10:41:03.075Z,74.69
2023-03-31T10:45:23.191Z,73.83
2023-03-31T10:49:38.910Z,70.83
2023-03-31T10:53:43.559Z,69.80
2023-03-31T10:57:56.726Z,66.98
2023-03-31T11:02:17.622Z,69.22
2023-03-31T11:06:27.865Z,67.75
2023-03-31T11:10:44.300Z,68.35
2023-03-31T11:15:01.265Z,66.24
2023-03-31T11:19:17.890Z,67.26
2023-03-31T11:23:28.176Z,66.42
2023-03-31T11:27:49.300Z,66.25
2023-03-31T11:32:00.816Z,63.92
2023-03-31T11:36:17.643Z,63.40
2023-03-31T11:40:36.752Z,63.74
2023-03-31T11:44:43.940Z,63.11
2023-03-31T11:48:52.767Z,63.96
2023-03-31T11:53:01.482Z,64.76
2023-03-31T11:57:11.512Z,66.75
2023-03-31T12:01:21.784Z,66.65
2023-03-31T12:05:28.789Z,63.93
2023-03-31T12:09:38.019Z,63.66
2023-03-31T12:13:48.466Z,63.26
2023-03-31T12:17:58.246Z,60.45
2023-03-31T12:22:09.576Z,58.50
2023-03-31T12:26:22.813Z,57.29
2023-03-31T12:30:34.540Z,55.55
2023-03-31T12:34:43.490Z,53.80
2023-03-31T12:39:02.673Z,52.99
2023-03-31T12:43:30.027Z,49.49
2023-03-31T12:47:45.739Z,49.57
2023-03-31T12:52:00.625Z,49.63
2023-03-31T12:56:05.209Z,50.82
2023-03-31T13:00:23.104Z,49.10
2023-03-31T13:04:28.022Z,47.52
2023-03-31T13:08:56.524Z,46.77
2023-03-31T13:13:03.941Z,43.83
2023-03-31T13:17:20.000Z,43.28
2023-03-31T13:21:23.913Z,43.34
2023-03-31T13:25:51.319Z,42.91
2023-03-31T13:29:56.354Z,44.73
2023-03-31T13:34:01.048Z,46.24
2023-03-31T13:38:14.581Z,48.28
2023-03-31T13:42:42.718Z,66.20
2023-03-31T13:46:57.450Z,73.85
2023-03-31T13:51:16.692Z,77.79
2023-03-31T13:55:47.774Z,76.29
2023-03-31T14:00:12.614Z,76.39
2023-03-31T14:04:56.840Z,76.85
2023-03-31T14:09:03.816Z,76.12
2023-03-31T14:13:09.633Z,74.98
2023-03-31T14:17:13.072Z,74.59
2023-03-31T14:21:27.410Z,72.98
2023-03-31T14:25:42.960Z,68.44
2023-03-31T14:29:52.767Z,68.92
2023-03-31T14:34:14.102Z,66.36
2023-03-31T14:38:21.868Z,65.26
2023-03-31T14:42:27.447Z,64.62
2023-03-31T14:46:32.914Z,64.10
2023-03-31T14:50:36.628Z,62.42
2023-03-31T14:54:41.480Z,60.23
2023-03-31T14:58:48.547Z,61.04
2023-03-31T15:02:52.006Z,61.01
2023-03-31T15:06:54.900Z,59.31
2023-03-31T15:11:11.939Z,56.99
2023-03-31T15:15:16.508Z,56.53
2023-03-31T15:19:21.137Z,54.36
2023-03-31T15:23:26.071Z,56.58
2023-03-31T15:27:37.388Z,56.09
2023-03-31T15:31:42.104Z,55.38
2023-03-31T15:35:45.215Z,56.08
2023-03-31T15:39:49.861Z,55.42
2023-03-31T15:44:06.644Z,54.96
2023-03-31T15:48:19.645Z,53.65
2023-03-31T15:52:35.550Z,53.93
2023-03-31T15:56:43.700Z,53.85
2023-03-31T16:00:52.760Z,53.17
2023-03-31T16:04:57.981Z,53.61
2023-03-31T16:09:05.083Z,54.82
2023-03-31T16:13:11.326Z,54.42
2023-03-31T16:17:24.895Z,55.34
2023-03-31T16:21:31.667Z,55.95
2023-03-31T16:25:41.198Z,56.24
2023-03-31T16:29:43.881Z,55.58
2023-03-31T16:33:56.737Z,57.12
2023-03-31T16:38:01.710Z,56.92
2023-03-31T16:42:04.699Z,57.37
2023-03-31T16:46:07.375Z,57.49
2023-03-31T16:50:12.196Z,59.35
2023-03-31T16:54:14.870Z,60.70
2023-03-31T16:58:18.207Z,61.39
2023-03-31T17:02:21.823Z,60.67
2023-03-31T17:06:25.846Z,60.01
2023-03-31T17:10:28.506Z,61.33
2023-03-31T17:14:31.342Z,63.23
2023-03-31T17:18:34.348Z,63.79
2023-03-31T17:22:38.787Z,63.66
2023-03-31T17:26:41.482Z,63.47
2023-03-31T17:30:47.800Z,63.97
2023-03-31T17:34:50.548Z,64.02
2023-03-31T17:38:55.358Z,64.55
2023-03-31T17:42:58.028Z,66.47
2023-03-31T17:47:01.172Z,67.28
2023-03-31T17:51:06.867Z,66.52
2023-03-31T17:55:11.872Z,66.99
2023-03-31T17:59:14.575Z,67.57
2023-03-31T18:03:17.687Z,67.94
2023-03-31T18:07:23.109Z,68.69
2023-03-31T18:11:27.387Z,69.17
2023-03-31T18:15:30.873Z,69.31
2023-03-31T18:19:33.795Z,69.80
2023-03-31T18:23:37.331Z,70.19
2023-03-31T18:27:41.841Z,70.38
2023-03-31T18:31:44.632Z,70.50
2023-03-31T18:35:48.297Z,70.72
2023-03-31T18:39:51.853Z,70.84
2023-03-31T18:43:56.310Z,71.00
2023-03-31T18:47:59.504Z,71.23
2023-03-31T18:52:04.284Z,71.15
2023-03-31T18:56:07.737Z,71.09
2023-03-31T19:00:14.878Z,70.88
2023-03-31T19:04:17.778Z,69.63
2023-03-31T19:08:21.087Z,69.63
2023-03-31T19:12:23.865Z,69.24
2023-03-31T19:16:28.880Z,69.13
2023-03-31T19:20:31.556Z,68.71
2023-03-31T19:24:34.191Z,68.79
2023-03-31T19:28:37.822Z,69.41
2023-03-31T19:32:42.678Z,69.62
2023-03-31T19:36:45.367Z,70.06
2023-03-31T19:40:49.408Z,70.41
2023-03-31T19:44:52.157Z,71.07
2023-03-31T19:48:56.451Z,71.20
2023-03-31T19:52:59.253Z,71.34
2023-03-31T19:57:02.187Z,71.33
2023-03-31T20:01:07.529Z,71.76
2023-03-31T20:05:11.739Z,72.38
2023-03-31T20:09:14.455Z,72.64
2023-03-31T20:13:18.412Z,72.52
2023-03-31T20:17:21.843Z,72.99
2023-03-31T20:21:31.129Z,73.35
2023-03-31T20:25:33.825Z,73.94
2023-03-31T20:29:37.101Z,75.24
2023-03-31T20:33:40.348Z,77.53
2023-03-31T20:37:44.820Z,79.13
2023-03-31T20:41:49.675Z,81.05
2023-03-31T20:45:57.768Z,81.93
2023-03-31T20:50:00.790Z,83.53
2023-03-31T20:54:05.864Z,84.60
2023-03-31T20:58:08.520Z,85.29
2023-03-31T21:02:13.513Z,86.07
2023-03-31T21:06:18.285Z,86.83
2023-03-31T21:10:22.274Z,87.51
2023-03-31T21:14:25.007Z,87.37
2023-03-31T21:18:28.662Z,87.33
2023-03-31T21:22:31.669Z,87.86
2023-03-31T21:26:35.671Z,88.14
2023-03-31T21:30:38.566Z,88.28
2023-03-31T21:34:41.295Z,88.44
2023-03-31T21:38:44.682Z,88.31
2023-03-31T21:42:48.672Z,88.45
2023-03-31T21:46:52.001Z,88.33
2023-03-31T21:50:56.198Z,88.12
2023-03-31T21:54:58.852Z,88.29
2023-03-31T21:59:04.391Z,87.98
2023-03-31T22:03:25.830Z,87.63
2023-03-31T22:07:29.588Z,87.47
2023-03-31T22:11:32.439Z,87.29
2023-03-31T22:15:36.572Z,86.73
2023-03-31T22:19:39.280Z,86.60
2023-03-31T22:23:41.935Z,86.52
2023-03-31T22:27:44.610Z,86.76
2023-03-31T22:31:48.675Z,86.37
2023-03-31T22:35:51.425Z,86.86
2023-03-31T22:39:54.085Z,86.76
2023-03-31T22:43:56.749Z,85.71
2023-03-31T22:48:01.037Z,86.18
2023-03-31T22:52:03.699Z,85.84
2023-03-31T22:56:08.442Z,85.11
2023-03-31T23:00:12.748Z,82.79
2023-03-31T23:04:16.803Z,83.33
2023-03-31T23:08:19.565Z,82.73
2023-03-31T23:12:22.224Z,82.73
2023-03-31T23:16:27.087Z,82.81
2023-03-31T23:20:31.153Z,81.45
2023-03-31T23:24:33.837Z,82.10
2023-03-31T23:28:38.326Z,81.75
2023-03-31T23:32:41.241Z,81.68
2023-03-31T23:36:45.382Z,80.85
2023-03-31T23:40:48.602Z,80.94
2023-03-31T23:44:51.274Z,80.40
2023-03-31T23:48:54.240Z,80.47
2023-03-31T23:52:59.498Z,79.86
2023-03-31T23:57:02.229Z,79.75
